sensor_id;sensor_type;location;lat;lon;timestamp;P1;durP1;ratioP1;P2;durP2;ratioP2
2674;SDS011;1347;42.122;24.746;2023-06-05T00:01:38;22.57;;;10.40;;
2674;SDS011;1347;42.122;24.746;2023-06-05T00:04:05;12.40;;;10.30;;
2674;SDS011;1347;42.122;24.746;2023-06-05T00:06:32;16.83;;;9.63;;
2674;SDS011;1347;42.122;24.746;2023-06-05T00:08:58;10.97;;;9.33;;
2674;SDS011;1347;42.122;24.746;2023-06-05T00:11:26;14.13;;;9.40;;
2674;SDS011;1347;42.122;24.746;2023-06-05T00:13:54;12.97;;;9.10;;
2674;SDS011;1347;42.122;24.746;2023-06-05T00:16:21;13.57;;;8.73;;
2674;SDS011;1347;42.122;24.746;2023-06-05T00:18:48;13.63;;;8.27;;
2674;SDS011;1347;42.122;24.746;2023-06-05T00:21:15;12.80;;;8.03;;
2674;SDS011;1347;42.122;24.746;2023-06-05T00:23:42;12.30;;;7.80;;
2674;SDS011;1347;42.122;24.746;2023-06-05T00:26:09;8.27;;;6.30;;
2674;SDS011;1347;42.122;24.746;2023-06-05T00:28:36;12.43;;;6.80;;
2674;SDS011;1347;42.122;24.746;2023-06-05T00:31:05;13.00;;;6.30;;
2674;SDS011;1347;42.122;24.746;2023-06-05T00:33:32;9.23;;;7.10;;
2674;SDS011;1347;42.122;24.746;2023-06-05T00:35:59;9.00;;;6.10;;
2674;SDS011;1347;42.122;24.746;2023-06-05T00:38:26;12.70;;;6.83;;
2674;SDS011;1347;42.122;24.746;2023-06-05T00:40:53;15.00;;;6.63;;
2674;SDS011;1347;42.122;24.746;2023-06-05T00:43:20;6.60;;;5.20;;
2674;SDS011;1347;42.122;24.746;2023-06-05T00:45:46;8.43;;;5.83;;
2674;SDS011;1347;42.122;24.746;2023-06-05T00:48:15;10.80;;;6.07;;
2674;SDS011;1347;42.122;24.746;2023-06-05T00:50:42;16.70;;;7.80;;
2674;SDS011;1347;42.122;24.746;2023-06-05T00:53:09;19.77;;;11.90;;
2674;SDS011;1347;42.122;24.746;2023-06-05T00:55:36;11.83;;;9.10;;
2674;SDS011;1347;42.122;24.746;2023-06-05T00:58:03;16.17;;;10.63;;
2674;SDS011;1347;42.122;24.746;2023-06-05T01:00:31;21.03;;;16.03;;
2674;SDS011;1347;42.122;24.746;2023-06-05T01:02:59;13.73;;;10.67;;
2674;SDS011;1347;42.122;24.746;2023-06-05T01:05:28;12.53;;;8.47;;
2674;SDS011;1347;42.122;24.746;2023-06-05T01:07:55;9.93;;;5.97;;
2674;SDS011;1347;42.122;24.746;2023-06-05T01:10:22;11.37;;;6.30;;
2674;SDS011;1347;42.122;24.746;2023-06-05T01:12:50;13.03;;;5.47;;
2674;SDS011;1347;42.122;24.746;2023-06-05T01:15:29;6.43;;;5.23;;
2674;SDS011;1347;42.122;24.746;2023-06-05T01:17:59;10.63;;;5.67;;
2674;SDS011;1347;42.122;24.746;2023-06-05T01:20:34;9.77;;;4.57;;
2674;SDS011;1347;42.122;24.746;2023-06-05T01:23:03;11.10;;;5.97;;
2674;SDS011;1347;42.122;24.746;2023-06-05T01:25:30;16.00;;;6.20;;
2674;SDS011;1347;42.122;24.746;2023-06-05T01:27:58;8.80;;;4.80;;
2674;SDS011;1347;42.122;24.746;2023-06-05T01:30:34;11.73;;;4.70;;
2674;SDS011;1347;42.122;24.746;2023-06-05T01:33:06;8.20;;;5.07;;
2674;SDS011;1347;42.122;24.746;2023-06-05T01:35:37;7.60;;;4.67;;
2674;SDS011;1347;42.122;24.746;2023-06-05T01:38:07;8.53;;;4.43;;
2674;SDS011;1347;42.122;24.746;2023-06-05T01:40:36;7.67;;;4.47;;
2674;SDS011;1347;42.122;24.746;2023-06-05T01:43:04;9.57;;;4.37;;
2674;SDS011;1347;42.122;24.746;2023-06-05T01:45:33;9.73;;;4.63;;
2674;SDS011;1347;42.122;24.746;2023-06-05T01:48:06;9.60;;;4.10;;
2674;SDS011;1347;42.122;24.746;2023-06-05T01:50:35;7.53;;;5.20;;
2674;SDS011;1347;42.122;24.746;2023-06-05T01:53:03;6.23;;;4.17;;
2674;SDS011;1347;42.122;24.746;2023-06-05T01:55:32;10.57;;;4.80;;
2674;SDS011;1347;42.122;24.746;2023-06-05T01:58:04;13.27;;;5.07;;
2674;SDS011;1347;42.122;24.746;2023-06-05T02:00:31;7.30;;;4.30;;
2674;SDS011;1347;42.122;24.746;2023-06-05T02:03:00;6.50;;;4.27;;
2674;SDS011;1347;42.122;24.746;2023-06-05T02:05:27;12.20;;;4.50;;
2674;SDS011;1347;42.122;24.746;2023-06-05T02:07:54;11.43;;;5.63;;
2674;SDS011;1347;42.122;24.746;2023-06-05T02:10:23;9.03;;;4.80;;
2674;SDS011;1347;42.122;24.746;2023-06-05T02:12:52;10.27;;;4.80;;
2674;SDS011;1347;42.122;24.746;2023-06-05T02:15:19;9.63;;;4.60;;
2674;SDS011;1347;42.122;24.746;2023-06-05T02:17:48;7.37;;;4.93;;
2674;SDS011;1347;42.122;24.746;2023-06-05T02:20:18;12.53;;;7.60;;
2674;SDS011;1347;42.122;24.746;2023-06-05T02:22:46;10.43;;;7.20;;
2674;SDS011;1347;42.122;24.746;2023-06-05T02:25:15;14.13;;;6.80;;
2674;SDS011;1347;42.122;24.746;2023-06-05T02:27:42;7.47;;;6.70;;
2674;SDS011;1347;42.122;24.746;2023-06-05T02:30:11;12.00;;;7.20;;
2674;SDS011;1347;42.122;24.746;2023-06-05T02:32:38;9.93;;;6.00;;
2674;SDS011;1347;42.122;24.746;2023-06-05T02:35:09;11.47;;;6.70;;
2674;SDS011;1347;42.122;24.746;2023-06-05T02:37:36;8.23;;;6.23;;
2674;SDS011;1347;42.122;24.746;2023-06-05T02:40:08;13.30;;;5.57;;
2674;SDS011;1347;42.122;24.746;2023-06-05T02:42:36;9.93;;;4.60;;
2674;SDS011;1347;42.122;24.746;2023-06-05T02:45:04;13.50;;;4.13;;
2674;SDS011;1347;42.122;24.746;2023-06-05T02:47:33;11.13;;;4.50;;
2674;SDS011;1347;42.122;24.746;2023-06-05T02:50:00;12.20;;;4.57;;
2674;SDS011;1347;42.122;24.746;2023-06-05T02:52:28;12.00;;;3.93;;
2674;SDS011;1347;42.122;24.746;2023-06-05T02:54:57;10.70;;;4.57;;
2674;SDS011;1347;42.122;24.746;2023-06-05T02:57:24;17.60;;;4.30;;
2674;SDS011;1347;42.122;24.746;2023-06-05T02:59:52;7.47;;;3.57;;
2674;SDS011;1347;42.122;24.746;2023-06-05T03:02:20;8.30;;;4.00;;
2674;SDS011;1347;42.122;24.746;2023-06-05T03:04:49;9.80;;;3.20;;
2674;SDS011;1347;42.122;24.746;2023-06-05T03:07:18;11.70;;;4.80;;
2674;SDS011;1347;42.122;24.746;2023-06-05T03:09:45;15.73;;;3.97;;
2674;SDS011;1347;42.122;24.746;2023-06-05T03:12:12;11.50;;;4.53;;
2674;SDS011;1347;42.122;24.746;2023-06-05T03:14:39;7.03;;;3.70;;
2674;SDS011;1347;42.122;24.746;2023-06-05T03:17:06;9.47;;;4.50;;
2674;SDS011;1347;42.122;24.746;2023-06-05T03:19:33;14.27;;;4.47;;
2674;SDS011;1347;42.122;24.746;2023-06-05T03:22:01;14.37;;;4.20;;
2674;SDS011;1347;42.122;24.746;2023-06-05T03:24:29;12.37;;;4.83;;
2674;SDS011;1347;42.122;24.746;2023-06-05T03:26:56;10.07;;;4.33;;
2674;SDS011;1347;42.122;24.746;2023-06-05T03:29:22;10.63;;;4.40;;
2674;SDS011;1347;42.122;24.746;2023-06-05T03:31:49;9.47;;;3.90;;
2674;SDS011;1347;42.122;24.746;2023-06-05T03:34:16;5.70;;;4.40;;
2674;SDS011;1347;42.122;24.746;2023-06-05T03:36:43;8.10;;;4.07;;
2674;SDS011;1347;42.122;24.746;2023-06-05T03:39:12;11.37;;;4.70;;
2674;SDS011;1347;42.122;24.746;2023-06-05T03:41:39;8.50;;;3.97;;
2674;SDS011;1347;42.122;24.746;2023-06-05T03:44:06;9.77;;;4.60;;
2674;SDS011;1347;42.122;24.746;2023-06-05T03:46:33;9.23;;;4.40;;
2674;SDS011;1347;42.122;24.746;2023-06-05T03:49:02;12.50;;;4.97;;
2674;SDS011;1347;42.122;24.746;2023-06-05T03:51:34;16.13;;;5.40;;
2674;SDS011;1347;42.122;24.746;2023-06-05T03:54:01;13.90;;;5.43;;
2674;SDS011;1347;42.122;24.746;2023-06-05T03:56:30;10.67;;;3.73;;
2674;SDS011;1347;42.122;24.746;2023-06-05T03:58:59;11.80;;;5.03;;
2674;SDS011;1347;42.122;24.746;2023-06-05T04:01:34;12.03;;;4.60;;
2674;SDS011;1347;42.122;24.746;2023-06-05T04:04:02;5.77;;;4.90;;
2674;SDS011;1347;42.122;24.746;2023-06-05T04:06:30;22.50;;;14.70;;
2674;SDS011;1347;42.122;24.746;2023-06-05T04:09:00;27.47;;;19.53;;
2674;SDS011;1347;42.122;24.746;2023-06-05T04:11:29;28.00;;;21.50;;
2674;SDS011;1347;42.122;24.746;2023-06-05T04:13:58;25.10;;;19.10;;
2674;SDS011;1347;42.122;24.746;2023-06-05T04:16:25;19.07;;;14.37;;
2674;SDS011;1347;42.122;24.746;2023-06-05T04:18:52;21.07;;;12.07;;
2674;SDS011;1347;42.122;24.746;2023-06-05T04:21:19;18.60;;;11.30;;
2674;SDS011;1347;42.122;24.746;2023-06-05T04:23:46;13.77;;;6.83;;
2674;SDS011;1347;42.122;24.746;2023-06-05T04:26:13;25.47;;;7.30;;
2674;SDS011;1347;42.122;24.746;2023-06-05T04:28:42;17.13;;;7.23;;
2674;SDS011;1347;42.122;24.746;2023-06-05T04:31:10;9.27;;;6.17;;
2674;SDS011;1347;42.122;24.746;2023-06-05T04:33:37;8.33;;;5.23;;
2674;SDS011;1347;42.122;24.746;2023-06-05T04:36:04;13.00;;;5.60;;
2674;SDS011;1347;42.122;24.746;2023-06-05T04:38:31;13.90;;;5.70;;
2674;SDS011;1347;42.122;24.746;2023-06-05T04:40:59;15.67;;;5.63;;
2674;SDS011;1347;42.122;24.746;2023-06-05T04:43:26;10.33;;;5.70;;
2674;SDS011;1347;42.122;24.746;2023-06-05T04:45:54;12.23;;;5.87;;
2674;SDS011;1347;42.122;24.746;2023-06-05T04:48:21;14.77;;;5.90;;
2674;SDS011;1347;42.122;24.746;2023-06-05T04:50:48;19.03;;;6.40;;
2674;SDS011;1347;42.122;24.746;2023-06-05T04:53:15;8.53;;;5.03;;
2674;SDS011;1347;42.122;24.746;2023-06-05T04:55:42;19.60;;;6.97;;
2674;SDS011;1347;42.122;24.746;2023-06-05T04:58:09;20.10;;;5.93;;
2674;SDS011;1347;42.122;24.746;2023-06-05T05:00:36;16.13;;;7.10;;
2674;SDS011;1347;42.122;24.746;2023-06-05T05:03:06;8.90;;;6.50;;
2674;SDS011;1347;42.122;24.746;2023-06-05T05:05:35;7.43;;;6.23;;
2674;SDS011;1347;42.122;24.746;2023-06-05T05:08:02;11.37;;;6.33;;
2674;SDS011;1347;42.122;24.746;2023-06-05T05:10:30;10.47;;;6.40;;
2674;SDS011;1347;42.122;24.746;2023-06-05T05:12:57;20.90;;;6.60;;
2674;SDS011;1347;42.122;24.746;2023-06-05T05:15:26;15.23;;;6.50;;
2674;SDS011;1347;42.122;24.746;2023-06-05T05:17:54;10.40;;;6.40;;
2674;SDS011;1347;42.122;24.746;2023-06-05T05:20:22;18.90;;;7.80;;
2674;SDS011;1347;42.122;24.746;2023-06-05T05:22:49;21.50;;;7.37;;
2674;SDS011;1347;42.122;24.746;2023-06-05T05:25:16;11.90;;;6.53;;
2674;SDS011;1347;42.122;24.746;2023-06-05T05:27:43;14.70;;;8.20;;
2674;SDS011;1347;42.122;24.746;2023-06-05T05:30:11;12.87;;;7.20;;
2674;SDS011;1347;42.122;24.746;2023-06-05T05:32:39;18.63;;;7.57;;
2674;SDS011;1347;42.122;24.746;2023-06-05T05:35:06;15.40;;;8.00;;
2674;SDS011;1347;42.122;24.746;2023-06-05T05:37:34;17.23;;;7.23;;
2674;SDS011;1347;42.122;24.746;2023-06-05T05:40:01;12.07;;;7.70;;
2674;SDS011;1347;42.122;24.746;2023-06-05T05:42:31;11.13;;;6.53;;
2674;SDS011;1347;42.122;24.746;2023-06-05T05:44:58;12.57;;;6.97;;
2674;SDS011;1347;42.122;24.746;2023-06-05T05:47:25;9.70;;;6.67;;
2674;SDS011;1347;42.122;24.746;2023-06-05T05:49:52;11.50;;;7.33;;
2674;SDS011;1347;42.122;24.746;2023-06-05T05:52:19;13.03;;;7.33;;
2674;SDS011;1347;42.122;24.746;2023-06-05T05:54:49;17.23;;;7.57;;
2674;SDS011;1347;42.122;24.746;2023-06-05T05:57:17;19.07;;;6.90;;
2674;SDS011;1347;42.122;24.746;2023-06-05T05:59:44;12.37;;;7.27;;
2674;SDS011;1347;42.122;24.746;2023-06-05T06:02:11;16.80;;;7.63;;
2674;SDS011;1347;42.122;24.746;2023-06-05T06:04:38;15.00;;;7.73;;
2674;SDS011;1347;42.122;24.746;2023-06-05T06:07:05;22.03;;;7.90;;
2674;SDS011;1347;42.122;24.746;2023-06-05T06:09:32;17.40;;;9.63;;
2674;SDS011;1347;42.122;24.746;2023-06-05T06:12:00;17.93;;;9.80;;
2674;SDS011;1347;42.122;24.746;2023-06-05T06:14:31;16.27;;;9.00;;
2674;SDS011;1347;42.122;24.746;2023-06-05T06:16:57;16.20;;;10.07;;
2674;SDS011;1347;42.122;24.746;2023-06-05T06:19:24;20.73;;;9.27;;
2674;SDS011;1347;42.122;24.746;2023-06-05T06:21:52;16.37;;;9.90;;
2674;SDS011;1347;42.122;24.746;2023-06-05T06:24:20;15.17;;;10.43;;
2674;SDS011;1347;42.122;24.746;2023-06-05T06:26:47;16.13;;;10.80;;
2674;SDS011;1347;42.122;24.746;2023-06-05T06:29:17;17.77;;;11.40;;
2674;SDS011;1347;42.122;24.746;2023-06-05T06:31:45;16.20;;;12.13;;
2674;SDS011;1347;42.122;24.746;2023-06-05T06:34:12;19.27;;;11.20;;
2674;SDS011;1347;42.122;24.746;2023-06-05T06:36:39;17.17;;;12.40;;
2674;SDS011;1347;42.122;24.746;2023-06-05T06:39:09;19.07;;;12.93;;
2674;SDS011;1347;42.122;24.746;2023-06-05T06:41:37;19.67;;;13.63;;
2674;SDS011;1347;42.122;24.746;2023-06-05T06:44:04;18.43;;;14.40;;
2674;SDS011;1347;42.122;24.746;2023-06-05T06:46:32;25.93;;;16.27;;
2674;SDS011;1347;42.122;24.746;2023-06-05T06:48:59;24.90;;;16.10;;
2674;SDS011;1347;42.122;24.746;2023-06-05T06:51:26;26.60;;;17.07;;
2674;SDS011;1347;42.122;24.746;2023-06-05T06:53:54;22.13;;;17.60;;
2674;SDS011;1347;42.122;24.746;2023-06-05T06:56:21;22.17;;;16.27;;
2674;SDS011;1347;42.122;24.746;2023-06-05T06:58:48;25.57;;;16.43;;
2674;SDS011;1347;42.122;24.746;2023-06-05T07:01:15;31.53;;;18.33;;
2674;SDS011;1347;42.122;24.746;2023-06-05T07:03:43;21.83;;;16.43;;
2674;SDS011;1347;42.122;24.746;2023-06-05T07:06:10;27.90;;;17.40;;
2674;SDS011;1347;42.122;24.746;2023-06-05T07:08:37;20.63;;;16.30;;
2674;SDS011;1347;42.122;24.746;2023-06-05T07:11:05;21.30;;;16.50;;
2674;SDS011;1347;42.122;24.746;2023-06-05T07:20:42;28.30;;;20.97;;
2674;SDS011;1347;42.122;24.746;2023-06-05T07:29:39;21.63;;;17.30;;
2674;SDS011;1347;42.122;24.746;2023-06-05T07:32:09;28.03;;;20.13;;
2674;SDS011;1347;42.122;24.746;2023-06-05T07:34:41;26.50;;;18.80;;
2674;SDS011;1347;42.122;24.746;2023-06-05T07:37:13;26.27;;;19.90;;
2674;SDS011;1347;42.122;24.746;2023-06-05T07:39:40;25.40;;;20.97;;
2674;SDS011;1347;42.122;24.746;2023-06-05T07:42:07;24.07;;;21.40;;
2674;SDS011;1347;42.122;24.746;2023-06-05T07:44:37;39.27;;;21.17;;
2674;SDS011;1347;42.122;24.746;2023-06-05T07:47:04;25.50;;;21.30;;
2674;SDS011;1347;42.122;24.746;2023-06-05T07:49:31;27.67;;;20.20;;
2674;SDS011;1347;42.122;24.746;2023-06-05T07:51:58;29.97;;;20.60;;
2674;SDS011;1347;42.122;24.746;2023-06-05T07:54:30;23.60;;;20.13;;
2674;SDS011;1347;42.122;24.746;2023-06-05T07:56:57;27.20;;;20.80;;
2674;SDS011;1347;42.122;24.746;2023-06-05T07:59:24;30.07;;;21.87;;
2674;SDS011;1347;42.122;24.746;2023-06-05T08:01:55;25.80;;;21.30;;
2674;SDS011;1347;42.122;24.746;2023-06-05T08:04:24;28.13;;;19.43;;
2674;SDS011;1347;42.122;24.746;2023-06-05T08:07:00;30.43;;;20.70;;
2674;SDS011;1347;42.122;24.746;2023-06-05T08:09:34;24.50;;;18.63;;
2674;SDS011;1347;42.122;24.746;2023-06-05T08:12:02;24.07;;;17.97;;
2674;SDS011;1347;42.122;24.746;2023-06-05T08:14:31;25.97;;;19.50;;
2674;SDS011;1347;42.122;24.746;2023-06-05T08:16:59;23.60;;;19.67;;
2674;SDS011;1347;42.122;24.746;2023-06-05T08:19:27;22.63;;;18.77;;
2674;SDS011;1347;42.122;24.746;2023-06-05T08:21:58;20.37;;;18.07;;
2674;SDS011;1347;42.122;24.746;2023-06-05T08:24:28;21.47;;;18.90;;
2674;SDS011;1347;42.122;24.746;2023-06-05T08:26:57;23.80;;;19.20;;
2674;SDS011;1347;42.122;24.746;2023-06-05T08:29:27;25.30;;;19.90;;
2674;SDS011;1347;42.122;24.746;2023-06-05T08:32:01;19.10;;;17.10;;
2674;SDS011;1347;42.122;24.746;2023-06-05T08:34:31;23.23;;;18.03;;
2674;SDS011;1347;42.122;24.746;2023-06-05T08:37:03;20.73;;;18.57;;
2674;SDS011;1347;42.122;24.746;2023-06-05T08:39:32;19.57;;;17.60;;
2674;SDS011;1347;42.122;24.746;2023-06-05T08:42:06;18.07;;;16.23;;
2674;SDS011;1347;42.122;24.746;2023-06-05T08:44:33;21.73;;;18.97;;
2674;SDS011;1347;42.122;24.746;2023-06-05T08:47:00;17.67;;;15.73;;
2674;SDS011;1347;42.122;24.746;2023-06-05T08:49:31;17.90;;;16.10;;
2674;SDS011;1347;42.122;24.746;2023-06-05T08:55:03;19.60;;;17.10;;
2674;SDS011;1347;42.122;24.746;2023-06-05T08:57:53;18.57;;;16.60;;
2674;SDS011;1347;42.122;24.746;2023-06-05T09:00:26;20.17;;;15.63;;
2674;SDS011;1347;42.122;24.746;2023-06-05T09:02:53;17.77;;;15.20;;
2674;SDS011;1347;42.122;24.746;2023-06-05T09:05:21;18.67;;;12.90;;
2674;SDS011;1347;42.122;24.746;2023-06-05T09:07:48;14.93;;;13.10;;
2674;SDS011;1347;42.122;24.746;2023-06-05T09:10:22;16.80;;;15.20;;
2674;SDS011;1347;42.122;24.746;2023-06-05T09:12:56;21.27;;;16.47;;
2674;SDS011;1347;42.122;24.746;2023-06-05T09:15:24;18.70;;;14.73;;
2674;SDS011;1347;42.122;24.746;2023-06-05T09:18:13;16.80;;;13.97;;
2674;SDS011;1347;42.122;24.746;2023-06-05T09:20:41;17.10;;;13.63;;
2674;SDS011;1347;42.122;24.746;2023-06-05T09:23:46;24.03;;;14.80;;
2674;SDS011;1347;42.122;24.746;2023-06-05T09:26:54;17.90;;;14.03;;
2674;SDS011;1347;42.122;24.746;2023-06-05T09:29:27;16.10;;;13.80;;
2674;SDS011;1347;42.122;24.746;2023-06-05T09:31:55;14.03;;;12.00;;
2674;SDS011;1347;42.122;24.746;2023-06-05T09:34:23;12.63;;;11.50;;
2674;SDS011;1347;42.122;24.746;2023-06-05T09:36:52;13.77;;;10.87;;
2674;SDS011;1347;42.122;24.746;2023-06-05T09:39:20;11.40;;;10.40;;
2674;SDS011;1347;42.122;24.746;2023-06-05T09:41:49;13.67;;;10.80;;
2674;SDS011;1347;42.122;24.746;2023-06-05T09:44:17;13.70;;;11.20;;
2674;SDS011;1347;42.122;24.746;2023-06-05T09:46:53;11.90;;;10.63;;
2674;SDS011;1347;42.122;24.746;2023-06-05T09:49:24;10.00;;;9.00;;
2674;SDS011;1347;42.122;24.746;2023-06-05T09:51:52;10.50;;;9.40;;
2674;SDS011;1347;42.122;24.746;2023-06-05T09:54:19;10.57;;;9.30;;
2674;SDS011;1347;42.122;24.746;2023-06-05T09:56:47;11.57;;;9.37;;
2674;SDS011;1347;42.122;24.746;2023-06-05T09:59:17;12.40;;;9.57;;
2674;SDS011;1347;42.122;24.746;2023-06-05T10:01:46;9.77;;;8.97;;
2674;SDS011;1347;42.122;24.746;2023-06-05T10:04:18;14.20;;;9.20;;
2674;SDS011;1347;42.122;24.746;2023-06-05T10:06:48;12.13;;;10.37;;
2674;SDS011;1347;42.122;24.746;2023-06-05T10:09:17;8.87;;;8.07;;
2674;SDS011;1347;42.122;24.746;2023-06-05T10:11:45;12.40;;;7.27;;
2674;SDS011;1347;42.122;24.746;2023-06-05T10:14:14;8.27;;;7.47;;
2674;SDS011;1347;42.122;24.746;2023-06-05T10:16:42;10.10;;;8.10;;
2674;SDS011;1347;42.122;24.746;2023-06-05T10:19:11;7.97;;;7.13;;
2674;SDS011;1347;42.122;24.746;2023-06-05T10:21:39;7.10;;;6.40;;
2674;SDS011;1347;42.122;24.746;2023-06-05T10:24:09;7.23;;;6.50;;
2674;SDS011;1347;42.122;24.746;2023-06-05T10:26:50;7.67;;;7.00;;
2674;SDS011;1347;42.122;24.746;2023-06-05T10:29:39;7.30;;;6.67;;
2674;SDS011;1347;42.122;24.746;2023-06-05T10:32:36;6.77;;;6.27;;
2674;SDS011;1347;42.122;24.746;2023-06-05T10:35:15;7.70;;;7.00;;
2674;SDS011;1347;42.122;24.746;2023-06-05T10:37:59;6.30;;;5.70;;
2674;SDS011;1347;42.122;24.746;2023-06-05T10:40:35;6.73;;;6.03;;
2674;SDS011;1347;42.122;24.746;2023-06-05T10:45:56;6.97;;;5.57;;
2674;SDS011;1347;42.122;24.746;2023-06-05T10:51:31;5.80;;;5.23;;
2674;SDS011;1347;42.122;24.746;2023-06-05T10:54:03;15.27;;;6.20;;
2674;SDS011;1347;42.122;24.746;2023-06-05T10:59:25;10.47;;;4.93;;
2674;SDS011;1347;42.122;24.746;2023-06-05T11:05:06;9.10;;;5.17;;
2674;SDS011;1347;42.122;24.746;2023-06-05T11:07:36;6.33;;;5.73;;
2674;SDS011;1347;42.122;24.746;2023-06-05T11:10:10;6.80;;;4.70;;
2674;SDS011;1347;42.122;24.746;2023-06-05T11:13:01;7.80;;;5.50;;
2674;SDS011;1347;42.122;24.746;2023-06-05T11:15:39;6.50;;;5.80;;
2674;SDS011;1347;42.122;24.746;2023-06-05T11:21:02;4.67;;;4.27;;
2674;SDS011;1347;42.122;24.746;2023-06-05T11:23:29;4.97;;;4.57;;
2674;SDS011;1347;42.122;24.746;2023-06-05T11:26:38;7.47;;;5.10;;
2674;SDS011;1347;42.122;24.746;2023-06-05T11:29:08;5.10;;;4.27;;
2674;SDS011;1347;42.122;24.746;2023-06-05T11:31:38;7.67;;;5.40;;
2674;SDS011;1347;42.122;24.746;2023-06-05T11:34:10;5.73;;;4.33;;
2674;SDS011;1347;42.122;24.746;2023-06-05T11:36:37;7.03;;;4.30;;
2674;SDS011;1347;42.122;24.746;2023-06-05T11:39:04;5.97;;;4.30;;
2674;SDS011;1347;42.122;24.746;2023-06-05T11:41:34;11.40;;;5.67;;
2674;SDS011;1347;42.122;24.746;2023-06-05T11:44:01;4.90;;;4.50;;
2674;SDS011;1347;42.122;24.746;2023-06-05T11:46:37;9.07;;;5.10;;
2674;SDS011;1347;42.122;24.746;2023-06-05T11:49:05;7.07;;;5.70;;
2674;SDS011;1347;42.122;24.746;2023-06-05T11:51:32;6.83;;;5.90;;
2674;SDS011;1347;42.122;24.746;2023-06-05T11:53:59;4.70;;;4.30;;
2674;SDS011;1347;42.122;24.746;2023-06-05T11:56:27;5.13;;;4.00;;
2674;SDS011;1347;42.122;24.746;2023-06-05T11:58:57;8.47;;;4.53;;
2674;SDS011;1347;42.122;24.746;2023-06-05T12:01:24;5.03;;;4.37;;
2674;SDS011;1347;42.122;24.746;2023-06-05T12:04:03;7.07;;;5.27;;
2674;SDS011;1347;42.122;24.746;2023-06-05T12:06:30;7.17;;;4.60;;
2674;SDS011;1347;42.122;24.746;2023-06-05T12:09:07;5.50;;;4.63;;
2674;SDS011;1347;42.122;24.746;2023-06-05T12:11:37;18.30;;;4.30;;
2674;SDS011;1347;42.122;24.746;2023-06-05T12:14:06;5.27;;;4.00;;
2674;SDS011;1347;42.122;24.746;2023-06-05T12:16:33;6.80;;;5.47;;
2674;SDS011;1347;42.122;24.746;2023-06-05T12:19:02;4.90;;;4.20;;
2674;SDS011;1347;42.122;24.746;2023-06-05T12:21:37;5.77;;;5.17;;
2674;SDS011;1347;42.122;24.746;2023-06-05T12:24:04;5.30;;;4.80;;
2674;SDS011;1347;42.122;24.746;2023-06-05T12:26:47;4.93;;;4.50;;
2674;SDS011;1347;42.122;24.746;2023-06-05T12:29:19;12.23;;;5.40;;
2674;SDS011;1347;42.122;24.746;2023-06-05T12:31:47;7.40;;;4.87;;
2674;SDS011;1347;42.122;24.746;2023-06-05T12:34:15;9.73;;;5.30;;
2674;SDS011;1347;42.122;24.746;2023-06-05T12:36:42;8.47;;;4.60;;
2674;SDS011;1347;42.122;24.746;2023-06-05T12:39:10;7.93;;;5.53;;
2674;SDS011;1347;42.122;24.746;2023-06-05T12:41:38;5.97;;;5.37;;
2674;SDS011;1347;42.122;24.746;2023-06-05T12:44:06;8.43;;;5.57;;
2674;SDS011;1347;42.122;24.746;2023-06-05T12:46:35;9.07;;;5.53;;
2674;SDS011;1347;42.122;24.746;2023-06-05T12:49:03;7.27;;;5.13;;
2674;SDS011;1347;42.122;24.746;2023-06-05T12:51:31;6.30;;;5.57;;
2674;SDS011;1347;42.122;24.746;2023-06-05T12:53:58;9.80;;;5.33;;
2674;SDS011;1347;42.122;24.746;2023-06-05T12:56:25;6.80;;;5.43;;
2674;SDS011;1347;42.122;24.746;2023-06-05T12:58:54;6.93;;;5.50;;
2674;SDS011;1347;42.122;24.746;2023-06-05T13:01:22;7.00;;;5.67;;
2674;SDS011;1347;42.122;24.746;2023-06-05T13:03:51;7.87;;;6.00;;
2674;SDS011;1347;42.122;24.746;2023-06-05T13:06:18;5.73;;;5.10;;
2674;SDS011;1347;42.122;24.746;2023-06-05T13:08:46;9.13;;;8.43;;
2674;SDS011;1347;42.122;24.746;2023-06-05T13:11:13;7.30;;;5.90;;
2674;SDS011;1347;42.122;24.746;2023-06-05T13:13:40;6.63;;;6.07;;
2674;SDS011;1347;42.122;24.746;2023-06-05T13:16:07;6.10;;;5.60;;
2674;SDS011;1347;42.122;24.746;2023-06-05T13:18:34;6.80;;;4.77;;
2674;SDS011;1347;42.122;24.746;2023-06-05T13:21:03;5.90;;;5.37;;
2674;SDS011;1347;42.122;24.746;2023-06-05T13:23:30;10.67;;;5.60;;
2674;SDS011;1347;42.122;24.746;2023-06-05T13:25:58;6.70;;;5.60;;
2674;SDS011;1347;42.122;24.746;2023-06-05T13:28:25;6.10;;;5.50;;
2674;SDS011;1347;42.122;24.746;2023-06-05T13:30:52;5.80;;;5.20;;
2674;SDS011;1347;42.122;24.746;2023-06-05T13:33:19;7.57;;;5.40;;
2674;SDS011;1347;42.122;24.746;2023-06-05T13:35:47;7.77;;;5.33;;
2674;SDS011;1347;42.122;24.746;2023-06-05T13:38:16;6.40;;;5.80;;
2674;SDS011;1347;42.122;24.746;2023-06-05T13:40:43;7.77;;;5.53;;
2674;SDS011;1347;42.122;24.746;2023-06-05T13:43:13;8.70;;;5.90;;
2674;SDS011;1347;42.122;24.746;2023-06-05T13:45:40;4.77;;;4.37;;
2674;SDS011;1347;42.122;24.746;2023-06-05T13:48:07;7.20;;;4.47;;
2674;SDS011;1347;42.122;24.746;2023-06-05T13:50:34;10.07;;;5.20;;
2674;SDS011;1347;42.122;24.746;2023-06-05T13:53:01;6.10;;;4.60;;
2674;SDS011;1347;42.122;24.746;2023-06-05T13:55:29;8.93;;;5.47;;
2674;SDS011;1347;42.122;24.746;2023-06-05T13:57:56;8.90;;;6.13;;
2674;SDS011;1347;42.122;24.746;2023-06-05T14:00:27;5.23;;;4.77;;
2674;SDS011;1347;42.122;24.746;2023-06-05T14:02:54;6.40;;;5.67;;
2674;SDS011;1347;42.122;24.746;2023-06-05T14:05:21;7.93;;;5.30;;
2674;SDS011;1347;42.122;24.746;2023-06-05T14:07:48;5.63;;;4.40;;
2674;SDS011;1347;42.122;24.746;2023-06-05T14:10:15;14.63;;;5.00;;
2674;SDS011;1347;42.122;24.746;2023-06-05T14:12:45;5.97;;;4.50;;
2674;SDS011;1347;42.122;24.746;2023-06-05T14:15:12;9.10;;;5.27;;
2674;SDS011;1347;42.122;24.746;2023-06-05T14:17:39;5.50;;;4.90;;
2674;SDS011;1347;42.122;24.746;2023-06-05T14:20:06;5.17;;;4.43;;
2674;SDS011;1347;42.122;24.746;2023-06-05T14:22:34;8.13;;;4.70;;
2674;SDS011;1347;42.122;24.746;2023-06-05T14:25:00;5.70;;;5.00;;
2674;SDS011;1347;42.122;24.746;2023-06-05T14:27:27;7.73;;;5.23;;
2674;SDS011;1347;42.122;24.746;2023-06-05T14:29:56;9.97;;;5.40;;
2674;SDS011;1347;42.122;24.746;2023-06-05T14:32:23;9.10;;;4.77;;
2674;SDS011;1347;42.122;24.746;2023-06-05T14:34:49;5.40;;;4.90;;
2674;SDS011;1347;42.122;24.746;2023-06-05T14:37:16;5.63;;;4.33;;
2674;SDS011;1347;42.122;24.746;2023-06-05T14:39:43;5.73;;;4.03;;
2674;SDS011;1347;42.122;24.746;2023-06-05T14:42:10;7.60;;;5.00;;
2674;SDS011;1347;42.122;24.746;2023-06-05T14:44:37;6.60;;;4.47;;
2674;SDS011;1347;42.122;24.746;2023-06-05T14:47:06;6.17;;;4.40;;
2674;SDS011;1347;42.122;24.746;2023-06-05T14:49:33;8.50;;;4.77;;
2674;SDS011;1347;42.122;24.746;2023-06-05T14:52:00;7.07;;;4.87;;
2674;SDS011;1347;42.122;24.746;2023-06-05T14:54:27;5.70;;;4.57;;
2674;SDS011;1347;42.122;24.746;2023-06-05T14:56:54;4.73;;;4.33;;
2674;SDS011;1347;42.122;24.746;2023-06-05T14:59:20;11.80;;;5.20;;
2674;SDS011;1347;42.122;24.746;2023-06-05T15:01:47;5.73;;;4.80;;
2674;SDS011;1347;42.122;24.746;2023-06-05T15:04:18;8.30;;;4.30;;
2674;SDS011;1347;42.122;24.746;2023-06-05T15:06:45;4.20;;;3.77;;
2674;SDS011;1347;42.122;24.746;2023-06-05T15:09:16;5.07;;;4.57;;
2674;SDS011;1347;42.122;24.746;2023-06-05T15:11:43;4.77;;;3.70;;
2674;SDS011;1347;42.122;24.746;2023-06-05T15:14:10;9.80;;;4.60;;
2674;SDS011;1347;42.122;24.746;2023-06-05T15:16:36;7.93;;;3.90;;
2674;SDS011;1347;42.122;24.746;2023-06-05T15:19:03;4.17;;;3.77;;
2674;SDS011;1347;42.122;24.746;2023-06-05T15:21:32;7.13;;;4.37;;
2674;SDS011;1347;42.122;24.746;2023-06-05T15:23:59;5.30;;;3.93;;
2674;SDS011;1347;42.122;24.746;2023-06-05T15:26:27;4.23;;;3.83;;
2674;SDS011;1347;42.122;24.746;2023-06-05T15:28:55;5.53;;;4.00;;
2674;SDS011;1347;42.122;24.746;2023-06-05T15:31:21;11.40;;;5.90;;
2674;SDS011;1347;42.122;24.746;2023-06-05T15:33:48;6.07;;;4.03;;